sensor_id;sensor_type;location;lat;lon;timestamp;temperature;humidity
44647;DHT22;56315;-33.902;151.160;2022-12-24T00:01:30;35.60;88.30
44647;DHT22;56315;-33.902;151.160;2022-12-24T00:03:57;35.60;87.40
44647;DHT22;56315;-33.902;151.160;2022-12-24T00:06:23;35.80;86.20
44647;DHT22;56315;-33.902;151.160;2022-12-24T00:08:50;35.80;88.20
44647;DHT22;56315;-33.902;151.160;2022-12-24T00:11:17;35.50;88.70
44647;DHT22;56315;-33.902;151.160;2022-12-24T00:13:44;35.70;86.40
44647;DHT22;56315;-33.902;151.160;2022-12-24T00:16:10;35.60;86.80
44647;DHT22;56315;-33.902;151.160;2022-12-24T00:18:37;35.60;86.30
44647;DHT22;56315;-33.902;151.160;2022-12-24T00:21:04;35.80;86.90
44647;DHT22;56315;-33.902;151.160;2022-12-24T00:23:31;35.90;86.40
44647;DHT22;56315;-33.902;151.160;2022-12-24T00:25:58;36.10;86.30
44647;DHT22;56315;-33.902;151.160;2022-12-24T00:28:24;36.30;85.30
44647;DHT22;56315;-33.902;151.160;2022-12-24T00:30:51;36.30;84.60
44647;DHT22;56315;-33.902;151.160;2022-12-24T00:33:17;36.50;83.60
44647;DHT22;56315;-33.902;151.160;2022-12-24T00:35:44;36.60;83.90
44647;DHT22;56315;-33.902;151.160;2022-12-24T00:38:15;36.80;83.20
44647;DHT22;56315;-33.902;151.160;2022-12-24T00:40:41;36.90;82.60
44647;DHT22;56315;-33.902;151.160;2022-12-24T00:43:08;36.80;82.70
44647;DHT22;56315;-33.902;151.160;2022-12-24T00:45:34;36.70;82.20
44647;DHT22;56315;-33.902;151.160;2022-12-24T00:48:01;36.40;81.50
44647;DHT22;56315;-33.902;151.160;2022-12-24T00:50:28;36.40;82.10
44647;DHT22;56315;-33.902;151.160;2022-12-24T00:52:54;36.50;82.40
44647;DHT22;56315;-33.902;151.160;2022-12-24T00:55:21;36.70;88.20
44647;DHT22;56315;-33.902;151.160;2022-12-24T00:57:47;36.70;88.90
44647;DHT22;56315;-33.902;151.160;2022-12-24T01:00:14;36.40;89.90
44647;DHT22;56315;-33.902;151.160;2022-12-24T01:02:42;36.00;90.80
44647;DHT22;56315;-33.902;151.160;2022-12-24T01:05:09;35.90;90.80
44647;DHT22;56315;-33.902;151.160;2022-12-24T01:07:37;35.80;91.20
44647;DHT22;56315;-33.902;151.160;2022-12-24T01:10:04;35.60;91.20
44647;DHT22;56315;-33.902;151.160;2022-12-24T01:12:31;35.70;91.80
44647;DHT22;56315;-33.902;151.160;2022-12-24T01:14:58;35.80;91.30
44647;DHT22;56315;-33.902;151.160;2022-12-24T01:17:24;35.70;91.10
44647;DHT22;56315;-33.902;151.160;2022-12-24T01:19:51;35.50;91.90
44647;DHT22;56315;-33.902;151.160;2022-12-24T01:22:17;35.50;91.60
44647;DHT22;56315;-33.902;151.160;2022-12-24T01:24:44;35.40;91.70
44647;DHT22;56315;-33.902;151.160;2022-12-24T01:27:11;35.20;91.40
44647;DHT22;56315;-33.902;151.160;2022-12-24T01:29:37;34.80;91.60
44647;DHT22;56315;-33.902;151.160;2022-12-24T01:32:04;34.80;92.20
44647;DHT22;56315;-33.902;151.160;2022-12-24T01:34:30;34.80;92.40
44647;DHT22;56315;-33.902;151.160;2022-12-24T01:36:57;34.90;92.30
44647;DHT22;56315;-33.902;151.160;2022-12-24T01:39:24;34.70;92.10
44647;DHT22;56315;-33.902;151.160;2022-12-24T01:41:50;34.50;92.60
44647;DHT22;56315;-33.902;151.160;2022-12-24T01:44:37;34.60;92.80
44647;DHT22;56315;-33.902;151.160;2022-12-24T01:49:34;34.40;93.00
44647;DHT22;56315;-33.902;151.160;2022-12-24T01:52:06;34.50;92.90
44647;DHT22;56315;-33.902;151.160;2022-12-24T01:54:35;34.60;92.80
44647;DHT22;56315;-33.902;151.160;2022-12-24T01:57:07;34.60;92.50
44647;DHT22;56315;-33.902;151.160;2022-12-24T01:59:36;34.50;92.60
44647;DHT22;56315;-33.902;151.160;2022-12-24T02:02:03;34.40;92.70
44647;DHT22;56315;-33.902;151.160;2022-12-24T02:07:00;34.20;93.10
44647;DHT22;56315;-33.902;151.160;2022-12-24T02:09:26;34.20;93.20
44647;DHT22;56315;-33.902;151.160;2022-12-24T02:11:53;34.00;93.20
44647;DHT22;56315;-33.902;151.160;2022-12-24T02:14:20;33.90;93.30
44647;DHT22;56315;-33.902;151.160;2022-12-24T02:16:52;33.70;93.10
44647;DHT22;56315;-33.902;151.160;2022-12-24T02:25:01;33.10;93.40
44647;DHT22;56315;-33.902;151.160;2022-12-24T02:30:11;32.70;93.80
44647;DHT22;56315;-33.902;151.160;2022-12-24T02:32:44;32.40;94.00
44647;DHT22;56315;-33.902;151.160;2022-12-24T02:37:41;32.50;93.90
44647;DHT22;56315;-33.902;151.160;2022-12-24T02:40:10;32.50;93.60
44647;DHT22;56315;-33.902;151.160;2022-12-24T02:42:39;32.80;93.40
44647;DHT22;56315;-33.902;151.160;2022-12-24T02:45:10;32.50;93.40
44647;DHT22;56315;-33.902;151.160;2022-12-24T02:47:37;32.40;93.70
44647;DHT22;56315;-33.902;151.160;2022-12-24T02:50:05;32.30;94.10
44647;DHT22;56315;-33.902;151.160;2022-12-24T02:52:34;32.30;93.90
44647;DHT22;56315;-33.902;151.160;2022-12-24T02:55:06;32.40;93.90
44647;DHT22;56315;-33.902;151.160;2022-12-24T03:00:06;32.10;94.20
44647;DHT22;56315;-33.902;151.160;2022-12-24T03:05:19;32.10;94.10
44647;DHT22;56315;-33.902;151.160;2022-12-24T03:12:47;31.50;93.70
44647;DHT22;56315;-33.902;151.160;2022-12-24T03:15:15;31.20;93.80
44647;DHT22;56315;-33.902;151.160;2022-12-24T03:17:44;31.20;94.60
44647;DHT22;56315;-33.902;151.160;2022-12-24T03:20:11;31.30;93.90
44647;DHT22;56315;-33.902;151.160;2022-12-24T03:22:40;31.30;93.90
44647;DHT22;56315;-33.902;151.160;2022-12-24T03:25:07;31.50;93.70
44647;DHT22;56315;-33.902;151.160;2022-12-24T03:27:33;31.60;93.80
44647;DHT22;56315;-33.902;151.160;2022-12-24T03:30:01;31.60;94.10
44647;DHT22;56315;-33.902;151.160;2022-12-24T03:32:29;31.70;94.20
44647;DHT22;56315;-33.902;151.160;2022-12-24T03:34:56;31.70;94.30
44647;DHT22;56315;-33.902;151.160;2022-12-24T03:37:23;31.70;93.90
44647;DHT22;56315;-33.902;151.160;2022-12-24T03:39:50;31.60;94.20
44647;DHT22;56315;-33.902;151.160;2022-12-24T03:42:16;31.50;94.00
44647;DHT22;56315;-33.902;151.160;2022-12-24T03:44:43;31.40;94.20
44647;DHT22;56315;-33.902;151.160;2022-12-24T03:47:10;31.50;94.40
44647;DHT22;56315;-33.902;151.160;2022-12-24T03:49:36;31.40;93.80
44647;DHT22;56315;-33.902;151.160;2022-12-24T03:52:03;31.50;94.10
44647;DHT22;56315;-33.902;151.160;2022-12-24T03:54:30;31.50;92.90
44647;DHT22;56315;-33.902;151.160;2022-12-24T03:56:56;31.40;93.00
44647;DHT22;56315;-33.902;151.160;2022-12-24T03:59:23;31.40;93.40
44647;DHT22;56315;-33.902;151.160;2022-12-24T04:01:49;31.30;92.80
44647;DHT22;56315;-33.902;151.160;2022-12-24T04:04:16;31.30;92.50
44647;DHT22;56315;-33.902;151.160;2022-12-24T04:06:43;31.30;92.60
44647;DHT22;56315;-33.902;151.160;2022-12-24T04:09:09;31.40;92.10
44647;DHT22;56315;-33.902;151.160;2022-12-24T04:11:36;31.60;92.60
44647;DHT22;56315;-33.902;151.160;2022-12-24T04:14:02;31.70;92.50
44647;DHT22;56315;-33.902;151.160;2022-12-24T04:16:29;31.50;92.30
44647;DHT22;56315;-33.902;151.160;2022-12-24T04:18:59;31.50;92.40
44647;DHT22;56315;-33.902;151.160;2022-12-24T04:21:27;31.50;92.60
44647;DHT22;56315;-33.902;151.160;2022-12-24T04:23:53;31.30;91.90
44647;DHT22;56315;-33.902;151.160;2022-12-24T04:26:20;31.00;92.30
44647;DHT22;56315;-33.902;151.160;2022-12-24T04:28:46;30.90;92.90
44647;DHT22;56315;-33.902;151.160;2022-12-24T04:31:14;31.00;92.70
44647;DHT22;56315;-33.902;151.160;2022-12-24T04:33:41;31.20;92.30
44647;DHT22;56315;-33.902;151.160;2022-12-24T04:36:09;31.30;92.20
44647;DHT22;56315;-33.902;151.160;2022-12-24T04:38:37;31.30;92.00
44647;DHT22;56315;-33.902;151.160;2022-12-24T04:41:05;31.40;92.10
44647;DHT22;56315;-33.902;151.160;2022-12-24T04:43:32;31.30;92.00
44647;DHT22;56315;-33.902;151.160;2022-12-24T04:46:11;31.30;92.10
44647;DHT22;56315;-33.902;151.160;2022-12-24T04:48:46;31.30;92.40
44647;DHT22;56315;-33.902;151.160;2022-12-24T04:51:14;31.40;91.70
44647;DHT22;56315;-33.902;151.160;2022-12-24T04:53:41;31.30;91.70
44647;DHT22;56315;-33.902;151.160;2022-12-24T04:56:11;31.20;91.60
44647;DHT22;56315;-33.902;151.160;2022-12-24T04:58:38;31.10;91.80
44647;DHT22;56315;-33.902;151.160;2022-12-24T05:01:06;31.00;91.90
44647;DHT22;56315;-33.902;151.160;2022-12-24T05:03:33;31.00;92.10
44647;DHT22;56315;-33.902;151.160;2022-12-24T05:06:01;30.90;91.80
44647;DHT22;56315;-33.902;151.160;2022-12-24T05:08:28;30.60;91.90
44647;DHT22;56315;-33.902;151.160;2022-12-24T05:10:55;30.30;92.10
44647;DHT22;56315;-33.902;151.160;2022-12-24T05:13:22;30.30;92.50
44647;DHT22;56315;-33.902;151.160;2022-12-24T05:15:48;30.20;92.80
44647;DHT22;56315;-33.902;151.160;2022-12-24T05:18:15;30.30;92.80
44647;DHT22;56315;-33.902;151.160;2022-12-24T05:20:42;30.30;92.90
44647;DHT22;56315;-33.902;151.160;2022-12-24T05:23:14;30.20;92.90
44647;DHT22;56315;-33.902;151.160;2022-12-24T05:25:59;30.10;93.10
44647;DHT22;56315;-33.902;151.160;2022-12-24T05:28:43;29.90;93.20
44647;DHT22;56315;-33.902;151.160;2022-12-24T05:31:10;29.80;93.80
44647;DHT22;56315;-33.902;151.160;2022-12-24T05:33:37;29.80;93.40
44647;DHT22;56315;-33.902;151.160;2022-12-24T05:36:04;29.70;93.70
44647;DHT22;56315;-33.902;151.160;2022-12-24T05:38:30;29.60;93.30
44647;DHT22;56315;-33.902;151.160;2022-12-24T05:40:57;29.50;93.40
44647;DHT22;56315;-33.902;151.160;2022-12-24T05:43:24;29.40;93.30
44647;DHT22;56315;-33.902;151.160;2022-12-24T05:45:50;29.40;93.30
44647;DHT22;56315;-33.902;151.160;2022-12-24T05:48:17;29.30;93.10
44647;DHT22;56315;-33.902;151.160;2022-12-24T05:50:44;29.30;92.90
44647;DHT22;56315;-33.902;151.160;2022-12-24T05:53:10;29.30;92.90
44647;DHT22;56315;-33.902;151.160;2022-12-24T05:55:37;29.20;92.70
44647;DHT22;56315;-33.902;151.160;2022-12-24T05:58:03;29.20;92.40
44647;DHT22;56315;-33.902;151.160;2022-12-24T06:00:30;29.10;92.50
44647;DHT22;56315;-33.902;151.160;2022-12-24T06:02:57;29.10;92.60
44647;DHT22;56315;-33.902;151.160;2022-12-24T06:05:23;29.20;92.30
44647;DHT22;56315;-33.902;151.160;2022-12-24T06:07:50;29.20;91.60
44647;DHT22;56315;-33.902;151.160;2022-12-24T06:10:16;29.20;91.60
44647;DHT22;56315;-33.902;151.160;2022-12-24T06:12:44;29.20;91.80
44647;DHT22;56315;-33.902;151.160;2022-12-24T06:15:11;29.30;91.80
44647;DHT22;56315;-33.902;151.160;2022-12-24T06:17:37;29.20;91.70
44647;DHT22;56315;-33.902;151.160;2022-12-24T06:20:04;29.30;91.50
44647;DHT22;56315;-33.902;151.160;2022-12-24T06:22:31;29.30;91.40
44647;DHT22;56315;-33.902;151.160;2022-12-24T06:24:57;29.30;91.20
44647;DHT22;56315;-33.902;151.160;2022-12-24T06:27:24;29.30;91.30
44647;DHT22;56315;-33.902;151.160;2022-12-24T06:29:51;29.20;91.40
44647;DHT22;56315;-33.902;151.160;2022-12-24T06:32:18;29.20;91.60
44647;DHT22;56315;-33.902;151.160;2022-12-24T06:34:45;29.20;91.50
44647;DHT22;56315;-33.902;151.160;2022-12-24T06:37:12;29.20;91.50
44647;DHT22;56315;-33.902;151.160;2022-12-24T06:39:44;29.20;91.50
44647;DHT22;56315;-33.902;151.160;2022-12-24T06:42:11;29.20;91.20
44647;DHT22;56315;-33.902;151.160;2022-12-24T06:44:38;29.20;90.70
44647;DHT22;56315;-33.902;151.160;2022-12-24T06:47:05;29.10;90.80
44647;DHT22;56315;-33.902;151.160;2022-12-24T06:49:31;29.10;91.20
44647;DHT22;56315;-33.902;151.160;2022-12-24T06:51:58;29.10;91.10
44647;DHT22;56315;-33.902;151.160;2022-12-24T06:54:24;29.10;91.10
44647;DHT22;56315;-33.902;151.160;2022-12-24T06:56:52;29.10;90.80
44647;DHT22;56315;-33.902;151.160;2022-12-24T06:59:18;29.10;90.60
44647;DHT22;56315;-33.902;151.160;2022-12-24T07:01:45;29.20;90.00
44647;DHT22;56315;-33.902;151.160;2022-12-24T07:04:11;29.20;90.10
44647;DHT22;56315;-33.902;151.160;2022-12-24T07:06:38;29.20;89.90
44647;DHT22;56315;-33.902;151.160;2022-12-24T07:09:07;29.20;90.10
44647;DHT22;56315;-33.902;151.160;2022-12-24T07:11:36;29.10;89.80
44647;DHT22;56315;-33.902;151.160;2022-12-24T07:14:03;29.20;90.00
44647;DHT22;56315;-33.902;151.160;2022-12-24T07:16:29;29.20;89.40
44647;DHT22;56315;-33.902;151.160;2022-12-24T07:18:56;29.20;89.10
44647;DHT22;56315;-33.902;151.160;2022-12-24T07:21:22;29.20;90.10
44647;DHT22;56315;-33.902;151.160;2022-12-24T07:23:49;29.30;90.20
44647;DHT22;56315;-33.902;151.160;2022-12-24T07:26:16;29.20;90.30
44647;DHT22;56315;-33.902;151.160;2022-12-24T07:28:42;29.20;90.70
44647;DHT22;56315;-33.902;151.160;2022-12-24T07:31:09;29.20;90.60
44647;DHT22;56315;-33.902;151.160;2022-12-24T07:33:35;29.20;91.20
44647;DHT22;56315;-33.902;151.160;2022-12-24T07:36:03;29.20;91.90
44647;DHT22;56315;-33.902;151.160;2022-12-24T07:38:30;29.20;92.30
44647;DHT22;56315;-33.902;151.160;2022-12-24T07:40:57;29.10;93.40
44647;DHT22;56315;-33.902;151.160;2022-12-24T07:43:25;29.00;93.50
44647;DHT22;56315;-33.902;151.160;2022-12-24T07:45:55;28.90;94.30
44647;DHT22;56315;-33.902;151.160;2022-12-24T07:48:32;28.80;94.70
44647;DHT22;56315;-33.902;151.160;2022-12-24T07:51:00;28.60;95.80
44647;DHT22;56315;-33.902;151.160;2022-12-24T07:53:27;28.50;96.60
44647;DHT22;56315;-33.902;151.160;2022-12-24T07:55:55;28.40;97.40
44647;DHT22;56315;-33.902;151.160;2022-12-24T07:58:22;28.30;97.70
44647;DHT22;56315;-33.902;151.160;2022-12-24T08:00:54;28.10;98.20
44647;DHT22;56315;-33.902;151.160;2022-12-24T08:03:21;28.00;98.10
44647;DHT22;56315;-33.902;151.160;2022-12-24T08:05:47;27.80;98.30
44647;DHT22;56315;-33.902;151.160;2022-12-24T08:08:14;27.70;98.80
44647;DHT22;56315;-33.902;151.160;2022-12-24T08:10:41;27.60;98.60
44647;DHT22;56315;-33.902;151.160;2022-12-24T08:13:08;27.50;98.90
44647;DHT22;56315;-33.902;151.160;2022-12-24T08:15:34;27.40;98.80
44647;DHT22;56315;-33.902;151.160;2022-12-24T08:18:01;27.30;99.20
44647;DHT22;56315;-33.902;151.160;2022-12-24T08:20:28;27.20;99.30
44647;DHT22;56315;-33.902;151.160;2022-12-24T08:22:54;27.20;99.90
44647;DHT22;56315;-33.902;151.160;2022-12-24T08:25:21;27.00;99.90
44647;DHT22;56315;-33.902;151.160;2022-12-24T08:27:47;26.90;99.90
44647;DHT22;56315;-33.902;151.160;2022-12-24T08:30:14;26.80;99.90
44647;DHT22;56315;-33.902;151.160;2022-12-24T08:32:41;26.70;99.90
44647;DHT22;56315;-33.902;151.160;2022-12-24T08:35:07;26.60;99.90
44647;DHT22;56315;-33.902;151.160;2022-12-24T08:37:34;26.50;99.90
44647;DHT22;56315;-33.902;151.160;2022-12-24T08:40:01;26.40;99.90
44647;DHT22;56315;-33.902;151.160;2022-12-24T08:42:28;26.40;99.90
44647;DHT22;56315;-33.902;151.160;2022-12-24T08:44:54;26.40;99.90
44647;DHT22;56315;-33.902;151.160;2022-12-24T08:47:24;26.30;99.90
44647;DHT22;56315;-33.902;151.160;2022-12-24T08:49:51;26.30;99.90
44647;DHT22;56315;-33.902;151.160;2022-12-24T08:52:17;26.20;99.90
44647;DHT22;56315;-33.902;151.160;2022-12-24T08:54:44;26.10;99.90
44647;DHT22;56315;-33.902;151.160;2022-12-24T08:57:13;26.00;99.90
44647;DHT22;56315;-33.902;151.160;2022-12-24T08:59:40;25.90;99.90
44647;DHT22;56315;-33.902;151.160;2022-12-24T09:02:07;25.80;99.90
44647;DHT22;56315;-33.902;151.160;2022-12-24T09:04:36;25.70;99.90
44647;DHT22;56315;-33.902;151.160;2022-12-24T09:07:13;25.60;99.90
44647;DHT22;56315;-33.902;151.160;2022-12-24T09:09:40;25.60;99.90
44647;DHT22;56315;-33.902;151.160;2022-12-24T09:12:07;25.60;99.90
44647;DHT22;56315;-33.902;151.160;2022-12-24T09:14:39;25.50;99.90
44647;DHT22;56315;-33.902;151.160;2022-12-24T09:17:11;25.30;99.90
44647;DHT22;56315;-33.902;151.160;2022-12-24T09:19:38;25.30;99.90
44647;DHT22;56315;-33.902;151.160;2022-12-24T09:22:06;25.20;99.90
44647;DHT22;56315;-33.902;151.160;2022-12-24T09:24:33;25.10;99.90
44647;DHT22;56315;-33.902;151.160;2022-12-24T09:27:02;25.10;99.90
44647;DHT22;56315;-33.902;151.160;2022-12-24T09:29:34;25.00;99.90
44647;DHT22;56315;-33.902;151.160;2022-12-24T09:32:01;25.00;99.90
44647;DHT22;56315;-33.902;151.160;2022-12-24T09:34:28;25.10;99.90
44647;DHT22;56315;-33.902;151.160;2022-12-24T09:36:54;25.00;99.90
44647;DHT22;56315;-33.902;151.160;2022-12-24T09:39:21;25.00;99.90
44647;DHT22;56315;-33.902;151.160;2022-12-24T09:44:34;24.90;99.90
44647;DHT22;56315;-33.902;151.160;2022-12-24T09:47:08;24.70;99.90
44647;DHT22;56315;-33.902;151.160;2022-12-24T09:49:38;24.70;99.90
44647;DHT22;56315;-33.902;151.160;2022-12-24T09:52:07;24.70;99.90
44647;DHT22;56315;-33.902;151.160;2022-12-24T09:54:38;24.70;99.90
44647;DHT22;56315;-33.902;151.160;2022-12-24T09:57:29;24.80;99.90
44647;DHT22;56315;-33.902;151.160;2022-12-24T09:59:53;24.70;99.90
44647;DHT22;56315;-33.902;151.160;2022-12-24T10:02:20;24.70;99.90
44647;DHT22;56315;-33.902;151.160;2022-12-24T10:04:47;24.70;99.90
44647;DHT22;56315;-33.902;151.160;2022-12-24T10:12:16;24.50;99.90
44647;DHT22;56315;-33.902;151.160;2022-12-24T10:17:40;24.40;99.90
44647;DHT22;56315;-33.902;151.160;2022-12-24T10:20:53;24.30;99.90
44647;DHT22;56315;-33.902;151.160;2022-12-24T10:23:02;24.30;99.90
44647;DHT22;56315;-33.902;151.160;2022-12-24T10:25:37;24.30;99.90
44647;DHT22;56315;-33.902;151.160;2022-12-24T10:28:12;24.20;99.90
44647;DHT22;56315;-33.902;151.160;2022-12-24T10:30:39;24.00;99.90
44647;DHT22;56315;-33.902;151.160;2022-12-24T10:33:12;23.90;99.90
44647;DHT22;56315;-33.902;151.160;2022-12-24T10:35:42;23.70;99.90
44647;DHT22;56315;-33.902;151.160;2022-12-24T10:38:10;23.70;99.90
44647;DHT22;56315;-33.902;151.160;2022-12-24T10:40:39;23.60;99.90
44647;DHT22;56315;-33.902;151.160;2022-12-24T10:43:14;23.60;99.90
44647;DHT22;56315;-33.902;151.160;2022-12-24T10:45:41;23.50;99.90
44647;DHT22;56315;-33.902;151.160;2022-12-24T10:48:11;23.50;99.90
44647;DHT22;56315;-33.902;151.160;2022-12-24T10:50:48;23.50;99.90
44647;DHT22;56315;-33.902;151.160;2022-12-24T11:05:08;23.40;99.90
44647;DHT22;56315;-33.902;151.160;2022-12-24T11:07:59;23.40;99.90
44647;DHT22;56315;-33.902;151.160;2022-12-24T11:10:26;23.30;99.90
44647;DHT22;56315;-33.902;151.160;2022-12-24T11:12:52;23.30;99.90
44647;DHT22;56315;-33.902;151.160;2022-12-24T11:15:23;23.30;99.90
44647;DHT22;56315;-33.902;151.160;2022-12-24T11:18:12;23.20;99.90
44647;DHT22;56315;-33.902;151.160;2022-12-24T11:20:39;23.20;99.90
44647;DHT22;56315;-33.902;151.160;2022-12-24T11:23:08;23.10;99.90
44647;DHT22;56315;-33.902;151.160;2022-12-24T11:25:39;23.10;99.90
44647;DHT22;56315;-33.902;151.160;2022-12-24T11:28:11;22.90;99.90
44647;DHT22;56315;-33.902;151.160;2022-12-24T11:30:38;23.00;99.90
44647;DHT22;56315;-33.902;151.160;2022-12-24T11:33:13;23.10;99.90
44647;DHT22;56315;-33.902;151.160;2022-12-24T11:35:42;23.10;99.90
44647;DHT22;56315;-33.902;151.160;2022-12-24T11:38:10;23.10;99.90
44647;DHT22;56315;-33.902;151.160;2022-12-24T11:40:39;23.30;99.90
44647;DHT22;56315;-33.902;151.160;2022-12-24T11:43:10;23.40;99.90
44647;DHT22;56315;-33.902;151.160;2022-12-24T11:45:39;23.50;99.90
44647;DHT22;56315;-33.902;151.160;2022-12-24T11:48:29;23.50;99.90
44647;DHT22;56315;-33.902;151.160;2022-12-24T11:51:06;23.30;99.90
44647;DHT22;56315;-33.902;151.160;2022-12-24T11:54:19;23.30;99.90
44647;DHT22;56315;-33.902;151.160;2022-12-24T11:59:07;23.10;99.90
44647;DHT22;56315;-33.902;151.160;2022-12-24T12:01:41;23.10;99.90
44647;DHT22;56315;-33.902;151.160;2022-12-24T12:04:18;23.00;99.90
44647;DHT22;56315;-33.902;151.160;2022-12-24T12:07:01;22.90;99.90
44647;DHT22;56315;-33.902;151.160;2022-12-24T12:09:34;22.80;99.90
44647;DHT22;56315;-33.902;151.160;2022-12-24T12:12:11;22.80;99.90
44647;DHT22;56315;-33.902;151.160;2022-12-24T12:14:47;22.70;99.90
44647;DHT22;56315;-33.902;151.160;2022-12-24T12:18:15;22.80;99.90
44647;DHT22;56315;-33.902;151.160;2022-12-24T12:20:11;22.80;99.90
44647;DHT22;56315;-33.902;151.160;2022-12-24T12:25:06;22.80;99.90
44647;DHT22;56315;-33.902;151.160;2022-12-24T12:27:38;22.70;99.90
44647;DHT22;56315;-33.902;151.160;2022-12-24T12:30:13;22.70;99.90
44647;DHT22;56315;-33.902;151.160;2022-12-24T12:32:56;22.70;99.90
44647;DHT22;56315;-33.902;151.160;2022-12-24T12:37:55;22.60;99.90
44647;DHT22;56315;-33.902;151.160;2022-12-24T12:40:25;22.60;99.90
44647;DHT22;56315;-33.902;151.160;2022-12-24T12:43:01;22.50;99.90
44647;DHT22;56315;-33.902;151.160;2022-12-24T12:45:37;22.50;99.90
44647;DHT22;56315;-33.902;151.160;2022-12-24T12:48:09;22.40;99.90
44647;DHT22;56315;-33.902;151.160;2022-12-24T12:58:29;22.40;99.90
44647;DHT22;56315;-33.902;151.160;2022-12-24T13:01:00;22.40;99.90
44647;DHT22;56315;-33.902;151.160;2022-12-24T13:03:40;22.40;99.90
44647;DHT22;56315;-33.902;151.160;2022-12-24T13:14:06;22.30;99.90
44647;DHT22;56315;-33.902;151.160;2022-12-24T13:21:31;22.10;99.90
44647;DHT22;56315;-33.902;151.160;2022-12-24T13:24:17;22.10;99.90
44647;DHT22;56315;-33.902;151.160;2022-12-24T13:34:48;21.90;99.90
44647;DHT22;56315;-33.902;151.160;2022-12-24T13:37:22;21.90;99.90
44647;DHT22;56315;-33.902;151.160;2022-12-24T13:40:02;21.90;99.90
44647;DHT22;56315;-33.902;151.160;2022-12-24T13:47:57;21.90;99.90
44647;DHT22;56315;-33.902;151.160;2022-12-24T13:50:28;21.80;99.90
44647;DHT22;56315;-33.902;151.160;2022-12-24T13:53:00;21.80;99.90
44647;DHT22;56315;-33.902;151.160;2022-12-24T13:55:26;21.80;99.90
44647;DHT22;56315;-33.902;151.160;2022-12-24T13:57:57;21.80;99.90
44647;DHT22;56315;-33.902;151.160;2022-12-24T14:00:43;21.70;99.90
44647;DHT22;56315;-33.902;151.160;2022-12-24T14:08:15;21.60;99.90
44647;DHT22;56315;-33.902;151.160;2022-12-24T14:10:56;21.50;99.90
44647;DHT22;56315;-33.902;151.160;2022-12-24T14:18:39;21.40;99.90
44647;DHT22;56315;-33.902;151.160;2022-12-24T14:21:11;21.40;99.90
44647;DHT22;56315;-33.902;151.160;2022-12-24T14:23:44;21.40;99.90
44647;DHT22;56315;-33.902;151.160;2022-12-24T14:26:15;21.50;99.90
44647;DHT22;56315;-33.902;151.160;2022-12-24T14:28:53;21.40;99.90
44647;DHT22;56315;-33.902;151.160;2022-12-24T14:31:20;21.40;99.90
44647;DHT22;56315;-33.902;151.160;2022-12-24T14:33:47;21.40;99.90
44647;DHT22;56315;-33.902;151.160;2022-12-24T14:36:14;21.50;99.90
44647;DHT22;56315;-33.902;151.160;2022-12-24T14:38:44;21.50;99.90
44647;DHT22;56315;-33.902;151.160;2022-12-24T14:44:07;21.40;99.90
44647;DHT22;56315;-33.902;151.160;2022-12-24T14:56:30;21.20;99.90
44647;DHT22;56315;-33.902;151.160;2022-12-24T14:58:57;21.10;99.90
44647;DHT22;56315;-33.902;151.160;2022-12-24T15:01:30;21.10;99.90
44647;DHT22;56315;-33.902;151.160;2022-12-24T15:06:32;21.10;99.90
44647;DHT22;56315;-33.902;151.160;2022-12-24T15:08:59;21.00;99.90
44647;DHT22;56315;-33.902;151.160;2022-12-24T15:11:26;21.00;99.90
44647;DHT22;56315;-33.902;151.160;2022-12-24T15:13:54;21.00;99.90
44647;DHT22;56315;-33.902;151.160;2022-12-24T15:16:31;21.00;99.90
44647;DHT22;56315;-33.902;151.160;2022-12-24T15:19:03;20.90;99.90
44647;DHT22;56315;-33.902;151.160;2022-12-24T15:21:34;20.90;99.90
44647;DHT22;56315;-33.902;151.160;2022-12-24T15:26:54;20.70;99.90
44647;DHT22;56315;-33.902;151.160;2022-12-24T15:29:27;20.70;99.90
44647;DHT22;56315;-33.902;151.160;2022-12-24T15:31:58;20.70;99.90
44647;DHT22;56315;-33.902;151.160;2022-12-24T15:34:29;20.60;99.90
44647;DHT22;56315;-33.902;151.160;2022-12-24T15:39:32;20.60;99.90
44647;DHT22;56315;-33.902;151.160;2022-12-24T15:41:59;20.50;99.90
44647;DHT22;56315;-33.902;151.160;2022-12-24T15:44:46;20.50;99.90
44647;DHT22;56315;-33.902;151.160;2022-12-24T15:47:15;20.50;99.90
44647;DHT22;56315;-33.902;151.160;2022-12-24T15:49:43;20.50;99.90
44647;DHT22;56315;-33.902;151.160;2022-12-24T15:52:13;20.50;99.90
44647;DHT22;56315;-33.902;151.160;2022-12-24T15:54:44;20.50;99.90
44647;DHT22;56315;-33.902;151.160;2022-12-24T15:57:20;20.50;99.90
44647;DHT22;56315;-33.902;151.160;2022-12-24T15:59:57;20.50;99.90
44647;DHT22;56315;-33.902;151.160;2022-12-24T16:02:35;20.40;99.90
44647;DHT22;56315;-33.902;151.160;2022-12-24T16:05:18;20.40;99.90
44647;DHT22;56315;-33.902;151.160;2022-12-24T16:08:01;20.40;99.90
44647;DHT22;56315;-33.902;151.160;2022-12-24T16:10:43;20.40;99.90
44647;DHT22;56315;-33.902;151.160;2022-12-24T16:16:20;20.40;99.90
44647;DHT22;56315;-33.902;151.160;2022-12-24T16:18:31;20.40;99.90
44647;DHT22;56315;-33.902;151.160;2022-12-24T16:20:58;20.40;99.90
44647;DHT22;56315;-33.902;151.160;2022-12-24T16:23:35;20.40;99.90
44647;DHT22;56315;-33.902;151.160;2022-12-24T16:26:02;20.40;99.90
44647;DHT22;56315;-33.902;151.160;2022-12-24T16:28:29;20.40;99.90
44647;DHT22;56315;-33.902;151.160;2022-12-24T16:30:56;20.40;99.90
44647;DHT22;56315;-33.902;151.160;2022-12-24T16:33:22;20.40;99.90
44647;DHT22;56315;-33.902;151.160;2022-12-24T16:35:49;20.40;99.90
44647;DHT22;56315;-33.902;151.160;2022-12-24T16:38:16;20.40;99.90
44647;DHT22;56315;-33.902;151.160;2022-12-24T16:40:42;20.40;99.90
44647;DHT22;56315;-33.902;151.160;2022-12-24T16:43:09;20.40;99.90
44647;DHT22;56315;-33.902;151.160;2022-12-24T16:48:24;20.40;99.90
44647;DHT22;56315;-33.902;151.160;2022-12-24T16:50:52;20.30;99.90
44647;DHT22;56315;-33.902;151.160;2022-12-24T16:53:19;20.30;99.90
44647;DHT22;56315;-33.902;151.160;2022-12-24T16:55:46;20.30;99.90
44647;DHT22;56315;-33.902;151.160;2022-12-24T16:58:14;20.30;99.90
44647;DHT22;56315;-33.902;151.160;2022-12-24T17:00:41;20.30;99.90
44647;DHT22;56315;-33.902;151.160;2022-12-24T17:03:09;20.40;99.90
44647;DHT22;56315;-33.902;151.160;2022-12-24T17:05:36;20.40;99.90
44647;DHT22;56315;-33.902;151.160;2022-12-24T17:08:03;20.40;99.90